Preview of NWS' New Version of Forecast
This preview is not operational and should not be used for support decisions.

Terminal Aerodrome Forecast (TAF)

Issued by National Weather Service (NWS)

                            
000
FTUS42 KCAE 180531
TAFOGB
TAF
KOGB 180531Z 1806/1906 VRB02KT P6SM FEW150
     FM180900 VRB02KT 4SM BR BKN004
     FM181400 24005KT P6SM BKN015
     FM181600 19005KT P6SM SCT050
     FM190000 VRB03KT P6SM BKN150=